Time,TemperatureF,DewpointF,PressureIn,WindDirection,WindDirectionDegrees,WindSpeedMPH,WindSpeedGustMPH,Humidity,HourlyPrecipIn,Conditions,Clouds,dailyrainin,SoftwareType,DateUTC
2013-09-01 00:14:00,52.5,51.0,29.89,North,360,2.0,-999.0,95,-99.99,,,0.00,weatherlink.com 1.10,2013-09-01 07:14:00,
2013-09-01 00:29:00,51.8,51.0,29.90,North,360,1.0,-999.0,95,-99.99,,,0.00,weatherlink.com 1.10,2013-09-01 07:29:00,
2013-09-01 00:44:00,51.0,49.0,29.90,North,360,0.0,-999.0,94,-99.99,,,0.00,weatherlink.com 1.10,2013-09-01 07:44:00,
2013-09-01 00:59:00,50.2,49.0,29.89,NNE,19,0.0,-999.0,94,-99.99,,,0.00,weatherlink.com 1.10,2013-09-01 07:59:00,
2013-09-01 01:14:00,49.7,48.0,29.89,NNE,17,1.0,-999.0,95,-99.99,,,0.00,weatherlink.com 1.10,2013-09-01 08:14:00,
2013-09-01 01:29:00,50.0,49.0,29.89,NNE,24,3.0,-999.0,95,-99.99,,,0.00,weatherlink.com 1.10,2013-09-01 08:29:00,
2013-09-01 01:44:00,50.5,49.0,29.89,NNW,335,2.0,-999.0,95,-99.99,,,0.00,weatherlink.com 1.10,2013-09-01 08:44:00,
2013-09-01 01:59:00,50.5,49.0,29.87,NNE,31,4.0,-999.0,95,-99.99,,,0.00,weatherlink.com 1.10,2013-09-01 08:59:00,
2013-09-01 02:14:00,50.7,49.0,29.87,NE,42,0.0,-999.0,95,-99.99,,,0.00,weatherlink.com 1.10,2013-09-01 09:14:00,
2013-09-01 02:29:00,50.8,50.0,29.87,NE,42,0.0,-999.0,95,-99.99,,,0.00,weatherlink.com 1.10,2013-09-01 09:29:00,
2013-09-01 02:44:00,50.6,49.0,29.86,NE,42,3.0,-999.0,95,-99.99,,,0.00,weatherlink.com 1.10,2013-09-01 09:44:00,
2013-09-01 02:59:00,50.5,49.0,29.87,NE,42,0.0,-999.0,95,-99.99,,,0.00,weatherlink.com 1.10,2013-09-01 09:59:00,
2013-09-01 03:15:00,50.3,49.0,29.87,NE,42,0.0,-999.0,95,-99.99,,,0.00,weatherlink.com 1.10,2013-09-01 10:15:00,
2013-09-01 03:29:00,51.0,50.0,29.88,NE,42,0.0,-999.0,96,-99.99,,,0.00,weatherlink.com 1.10,2013-09-01 10:29:00,
2013-09-01 03:44:00,50.8,50.0,29.88,NE,42,0.0,-999.0,95,-99.99,,,0.00,weatherlink.com 1.10,2013-09-01 10:44:00,
2013-09-01 03:59:00,49.9,49.0,29.88,NE,42,3.0,-999.0,95,-99.99,,,0.00,weatherlink.com 1.10,2013-09-01 10:59:00,
2013-09-01 04:15:00,49.4,48.0,29.87,NE,46,2.0,-999.0,95,-99.99,,,0.00,weatherlink.com 1.10,2013-09-01 11:15:00,
2013-09-01 04:30:00,49.1,48.0,29.86,NE,47,1.0,-999.0,95,-99.99,,,0.00,weatherlink.com 1.10,2013-09-01 11:30:00,
2013-09-01 04:45:00,50.0,49.0,29.86,NE,43,3.0,-999.0,96,-99.99,,,0.00,weatherlink.com 1.10,2013-09-01 11:45:00,
2013-09-01 05:00:00,51.0,50.0,29.86,SSE,166,0.0,-999.0,96,-99.99,,,0.00,weatherlink.com 1.10,2013-09-01 12:00:00,
2013-09-01 05:15:00,50.4,49.0,29.87,SSE,166,0.0,-999.0,95,-99.99,,,0.00,weatherlink.com 1.10,2013-09-01 12:15:00,
2013-09-01 05:30:00,49.5,48.0,29.86,ESE,109,2.0,-999.0,95,-99.99,,,0.00,weatherlink.com 1.10,2013-09-01 12:30:00,
2013-09-01 05:45:00,49.6,49.0,29.87,East,94,0.0,-999.0,96,-99.99,,,0.00,weatherlink.com 1.10,2013-09-01 12:45:00,
2013-09-01 06:00:00,49.3,48.0,29.88,East,94,0.0,-999.0,95,-99.99,,,0.00,weatherlink.com 1.10,2013-09-01 13:00:00,
2013-09-01 06:15:00,49.0,48.0,29.87,ENE,78,1.0,-999.0,95,-99.99,,,0.00,weatherlink.com 1.10,2013-09-01 13:15:00,
2013-09-01 06:30:00,48.4,47.0,29.87,ENE,78,3.0,-999.0,95,-99.99,,,0.00,weatherlink.com 1.10,2013-09-01 13:30:00,
2013-09-01 06:45:00,48.2,47.0,29.87,ENE,78,0.0,-999.0,95,-99.99,,,0.00,weatherlink.com 1.10,2013-09-01 13:45:00,
2013-09-01 07:00:00,47.7,46.0,29.87,ENE,78,0.0,-999.0,95,-99.99,,,0.01,weatherlink.com 1.10,2013-09-01 14:00:00,
2013-09-01 07:15:00,47.6,46.0,29.88,ENE,78,0.0,-999.0,95,-99.99,,,0.01,weatherlink.com 1.10,2013-09-01 14:15:00,
2013-09-01 07:30:00,48.6,48.0,29.88,East,80,2.0,-999.0,96,-99.99,,,0.01,weatherlink.com 1.10,2013-09-01 14:30:00,
2013-09-01 07:45:00,49.2,48.0,29.88,East,80,0.0,-999.0,96,-99.99,,,0.01,weatherlink.com 1.10,2013-09-01 14:45:00,
2013-09-01 08:00:00,50.3,49.0,29.88,East,80,0.0,-999.0,96,-99.99,,,0.01,weatherlink.com 1.10,2013-09-01 15:00:00,
2013-09-01 08:14:00,52.0,51.0,29.88,East,80,0.0,-999.0,97,-99.99,,,0.01,weatherlink.com 1.10,2013-09-01 15:14:00,
2013-09-01 08:30:00,54.1,53.0,29.89,East,80,1.0,-999.0,97,-99.99,,,0.01,weatherlink.com 1.10,2013-09-01 15:30:00,
2013-09-01 08:45:00,54.5,53.0,29.89,SE,127,0.0,-999.0,96,-99.99,,,0.01,weatherlink.com 1.10,2013-09-01 15:45:00,
2013-09-01 09:00:00,55.0,54.0,29.88,SE,127,1.0,-999.0,96,-99.99,,,0.01,weatherlink.com 1.10,2013-09-01 16:00:00,
2013-09-01 09:15:00,57.5,56.0,29.89,SSW,197,2.0,-999.0,96,-99.99,,,0.01,weatherlink.com 1.10,2013-09-01 16:15:00,
2013-09-01 09:30:00,56.3,55.0,29.89,SSW,197,2.0,-999.0,95,-99.99,,,0.01,weatherlink.com 1.10,2013-09-01 16:30:00,
2013-09-01 09:45:00,57.5,56.0,29.89,SSW,197,2.0,-999.0,94,-99.99,,,0.01,weatherlink.com 1.10,2013-09-01 16:45:00,
2013-09-01 10:00:00,58.8,56.0,29.89,SSW,197,1.0,-999.0,90,-99.99,,,0.01,weatherlink.com 1.10,2013-09-01 17:00:00,
2013-09-01 10:15:00,59.6,56.0,29.89,SW,223,3.0,-999.0,87,-99.99,,,0.01,weatherlink.com 1.10,2013-09-01 17:15:00,
2013-09-01 10:30:00,61.5,56.0,29.89,SW,223,2.0,-999.0,83,-99.99,,,0.01,weatherlink.com 1.10,2013-09-01 17:30:00,
2013-09-01 10:45:00,62.2,56.0,29.88,WSW,244,2.0,-999.0,79,-99.99,,,0.01,weatherlink.com 1.10,2013-09-01 17:45:00,
2013-09-01 11:00:00,62.4,55.0,29.88,WSW,243,2.0,-999.0,78,-99.99,,,0.01,weatherlink.com 1.10,2013-09-01 18:00:00,
2013-09-01 11:15:00,61.3,54.0,29.89,West,265,2.0,-999.0,77,-99.99,,,0.01,weatherlink.com 1.10,2013-09-01 18:15:00,
2013-09-01 11:30:00,63.9,56.0,29.89,WSW,242,5.0,-999.0,76,-99.99,,,0.01,weatherlink.com 1.10,2013-09-01 18:30:00,
2013-09-01 11:44:00,60.1,54.0,29.90,West,272,3.0,-999.0,81,-99.99,,,0.01,weatherlink.com 1.10,2013-09-01 18:44:00,
2013-09-01 12:00:00,60.8,56.0,29.90,SW,236,7.0,-999.0,84,-99.99,,,0.01,weatherlink.com 1.10,2013-09-01 19:00:00,
2013-09-01 12:15:00,60.0,55.0,29.90,West,264,6.0,-999.0,84,-99.99,,,0.01,weatherlink.com 1.10,2013-09-01 19:15:00,
2013-09-01 12:29:00,59.3,56.0,29.91,NNW,341,4.0,-999.0,87,-99.99,,,0.01,weatherlink.com 1.10,2013-09-01 19:29:00,
2013-09-01 12:44:00,60.2,57.0,29.91,NW,304,5.0,-999.0,88,-99.99,,,0.01,weatherlink.com 1.10,2013-09-01 19:44:00,
2013-09-01 12:59:00,60.0,57.0,29.90,West,269,3.0,-999.0,89,-99.99,,,0.01,weatherlink.com 1.10,2013-09-01 19:59:00,
2013-09-01 13:14:00,61.3,58.0,29.90,WNW,286,4.0,-999.0,88,-99.99,,,0.01,weatherlink.com 1.10,2013-09-01 20:14:00,
2013-09-01 13:30:00,62.2,58.0,29.89,West,265,5.0,-999.0,86,-99.99,,,0.01,weatherlink.com 1.10,2013-09-01 20:30:00,
2013-09-01 13:44:00,63.9,58.0,29.89,NNW,346,3.0,-999.0,82,-99.99,,,0.01,weatherlink.com 1.10,2013-09-01 20:44:00,
2013-09-01 13:59:00,65.1,58.0,29.89,NNW,348,2.0,-999.0,79,-99.99,,,0.01,weatherlink.com 1.10,2013-09-01 20:59:00,
2013-09-01 14:17:00,66.1,60.0,29.89,West,260,4.0,-999.0,80,-99.99,,,0.01,weatherlink.com 1.10,2013-09-01 21:17:00,
2013-09-01 14:30:00,66.7,61.0,29.89,West,259,4.0,-999.0,81,-99.99,,,0.01,weatherlink.com 1.10,2013-09-01 21:30:00,
2013-09-01 14:45:00,66.8,61.0,29.88,NW,317,4.0,-999.0,81,-99.99,,,0.01,weatherlink.com 1.10,2013-09-01 21:45:00,
2013-09-01 15:00:00,66.0,60.0,29.88,WNW,294,4.0,-999.0,82,-99.99,,,0.01,weatherlink.com 1.10,2013-09-01 22:00:00,
2013-09-01 15:17:00,65.1,60.0,29.88,NW,315,5.0,-999.0,84,-99.99,,,0.01,weatherlink.com 1.10,2013-09-01 22:17:00,
2013-09-01 15:29:00,65.2,60.0,29.88,WNW,296,4.0,-999.0,84,-99.99,,,0.01,weatherlink.com 1.10,2013-09-01 22:29:00,
2013-09-01 15:44:00,64.8,60.0,29.87,NW,307,6.0,-999.0,85,-99.99,,,0.01,weatherlink.com 1.10,2013-09-01 22:44:00,
2013-09-01 15:59:00,64.1,60.0,29.87,NW,317,7.0,-999.0,86,-99.99,,,0.01,weatherlink.com 1.10,2013-09-01 22:59:00,
2013-09-01 16:17:00,64.6,61.0,29.87,North,350,5.0,-999.0,87,-99.99,,,0.01,weatherlink.com 1.10,2013-09-01 23:17:00,
2013-09-01 16:29:00,67.4,61.0,29.87,NNW,347,6.0,-999.0,81,-99.99,,,0.01,weatherlink.com 1.10,2013-09-01 23:29:00,
2013-09-01 16:44:00,69.2,61.0,29.87,WNW,294,4.0,-999.0,74,-99.99,,,0.01,weatherlink.com 1.10,2013-09-01 23:44:00,
2013-09-01 16:59:00,69.2,62.0,29.87,NW,304,8.0,-999.0,78,-99.99,,,0.01,weatherlink.com 1.10,2013-09-01 23:59:00,
2013-09-01 17:17:00,68.9,62.0,29.87,WNW,284,8.0,-999.0,78,-99.99,,,0.01,weatherlink.com 1.10,2013-09-02 00:17:00,
2013-09-01 17:30:00,68.1,62.0,29.87,NNW,344,3.0,-999.0,81,-99.99,,,0.01,weatherlink.com 1.10,2013-09-02 00:30:00,
2013-09-01 17:45:00,69.9,62.0,29.87,NNW,348,4.0,-999.0,77,-99.99,,,0.01,weatherlink.com 1.10,2013-09-02 00:45:00,
2013-09-01 18:00:00,70.6,63.0,29.87,NNE,15,3.0,-999.0,77,-99.99,,,0.01,weatherlink.com 1.10,2013-09-02 01:00:00,
2013-09-01 18:17:00,69.8,62.0,29.87,North,351,5.0,-999.0,76,-99.99,,,0.01,weatherlink.com 1.10,2013-09-02 01:17:00,
2013-09-01 18:30:00,69.3,63.0,29.86,North,355,2.0,-999.0,79,-99.99,,,0.01,weatherlink.com 1.10,2013-09-02 01:30:00,
2013-09-01 18:45:00,68.3,62.0,29.87,North,355,2.0,-999.0,81,-99.99,,,0.01,weatherlink.com 1.10,2013-09-02 01:45:00,
2013-09-01 19:00:00,67.9,62.0,29.87,NE,42,4.0,-999.0,82,-99.99,,,0.01,weatherlink.com 1.10,2013-09-02 02:00:00,
2013-09-01 19:17:00,67.6,62.0,29.86,NNE,20,5.0,-999.0,82,-99.99,,,0.01,weatherlink.com 1.10,2013-09-02 02:17:00,
2013-09-01 19:30:00,66.7,61.0,29.86,North,355,3.0,-999.0,83,-99.99,,,0.01,weatherlink.com 1.10,2013-09-02 02:30:00,
2013-09-01 19:45:00,66.0,61.0,29.86,North,10,2.0,-999.0,84,-99.99,,,0.01,weatherlink.com 1.10,2013-09-02 02:45:00,
2013-09-01 20:00:00,65.2,61.0,29.86,NNE,33,2.0,-999.0,85,-99.99,,,0.01,weatherlink.com 1.10,2013-09-02 03:00:00,
2013-09-01 20:17:00,64.7,61.0,29.86,NNE,33,3.0,-999.0,86,-99.99,,,0.01,weatherlink.com 1.10,2013-09-02 03:17:00,
2013-09-01 20:30:00,64.0,60.0,29.86,NNE,22,1.0,-999.0,88,-99.99,,,0.01,weatherlink.com 1.10,2013-09-02 03:30:00,
2013-09-01 20:45:00,63.5,60.0,29.86,NNE,22,1.0,-999.0,88,-99.99,,,0.01,weatherlink.com 1.10,2013-09-02 03:45:00,
2013-09-01 21:00:00,63.3,60.0,29.87,NNE,22,1.0,-999.0,89,-99.99,,,0.01,weatherlink.com 1.10,2013-09-02 04:00:00,
2013-09-01 21:17:00,63.7,61.0,29.87,NNE,22,0.0,-999.0,90,-99.99,,,0.01,weatherlink.com 1.10,2013-09-02 04:17:00,
2013-09-01 21:30:00,64.7,62.0,29.87,North,355,4.0,-999.0,90,-99.99,,,0.01,weatherlink.com 1.10,2013-09-02 04:30:00,
2013-09-01 21:45:00,64.3,61.0,29.87,NW,326,3.0,-999.0,89,-99.99,,,0.01,weatherlink.com 1.10,2013-09-02 04:45:00,
2013-09-01 22:00:00,64.1,61.0,29.87,NNW,343,5.0,-999.0,89,-99.99,,,0.01,weatherlink.com 1.10,2013-09-02 05:00:00,
2013-09-01 22:17:00,64.0,61.0,29.87,North,355,1.0,-999.0,90,-99.99,,,0.01,weatherlink.com 1.10,2013-09-02 05:17:00,
2013-09-01 22:30:00,64.0,61.0,29.87,NNW,347,2.0,-999.0,90,-99.99,,,0.01,weatherlink.com 1.10,2013-09-02 05:30:00,
2013-09-01 22:45:00,63.9,61.0,29.88,North,355,4.0,-999.0,91,-99.99,,,0.01,weatherlink.com 1.10,2013-09-02 05:45:00,
2013-09-01 23:00:00,64.0,61.0,29.88,North,355,1.0,-999.0,91,-99.99,,,0.01,weatherlink.com 1.10,2013-09-02 06:00:00,
2013-09-01 23:17:00,64.0,61.0,29.88,NE,34,4.0,-999.0,91,-99.99,,,0.01,weatherlink.com 1.10,2013-09-02 06:17:00,
2013-09-01 23:30:00,63.9,61.0,29.88,NE,48,5.0,-999.0,90,-99.99,,,0.01,weatherlink.com 1.10,2013-09-02 06:30:00,
2013-09-01 23:45:00,64.0,61.0,29.87,NE,42,6.0,-999.0,90,-99.99,,,0.01,weatherlink.com 1.10,2013-09-02 06:45:00,